Terminal Aerodrome Forecast
Issued by NWS Wichita, KS

Home | Current Version | Previous Version | Graphics & Text | Print | Product List | Glossary On
Versions: 1 2 3 4 5 6 7 8 9 10 11 12 13 14 15 16 17 18
000
FTUS43 KICT 251736
TAFICT
TAF
KICT 251736Z 2518/2618 04015KT P6SM OVC050
     FM252000 03023G31KT P6SM VCTS OVC040CB
     FM260000 01024G32KT 6SM -RA SCT015 OVC025
     FM260700 36016G22KT P6SM SCT015 BKN100=

USA.gov is the U.S. government's official web portal to all federal, state and local government web resources and services.